Terminal Aerodrome Forecast
Issued by NWS

Home | Current Version | Previous Version | Text Only | Print | Product List | Glossary On
Versions: 1 2 3 4 5 6 7 8 9 10 11 12 13 14 15 16 17 18 19 20 21 22 23 24 25 26 27 28 29 30 31 32
000
FTUS43 KDMX 291736
TAFMCW
TAF
KMCW 291736Z 2918/3018 21011KT P6SM SCT100
     FM292200 24009KT P6SM VCSH SCT025 BKN040 OVC080
     FM300200 27006KT 5SM BR VCSH SCT012 BKN024 OVC050
     FM300700 28004KT 3SM BR SCT005 BKN011
     FM301500 28008KT 6SM BR SCT009=

USA.gov is the U.S. government's official web portal to all federal, state and local government web resources and services.